sensor_id;sensor_type;location;lat;lon;timestamp;P1;durP1;ratioP1;P2;durP2;ratioP2
30398;SDS011;17195;50.838;7.214;2023-03-01T00:01:11;17.67;;;10.65;;
30398;SDS011;17195;50.838;7.214;2023-03-01T00:03:38;15.43;;;8.90;;
30398;SDS011;17195;50.838;7.214;2023-03-01T00:06:04;17.70;;;10.00;;
30398;SDS011;17195;50.838;7.214;2023-03-01T00:08:30;15.77;;;9.25;;
30398;SDS011;17195;50.838;7.214;2023-03-01T00:11:07;13.93;;;8.80;;
30398;SDS011;17195;50.838;7.214;2023-03-01T00:13:36;15.95;;;8.95;;
30398;SDS011;17195;50.838;7.214;2023-03-01T00:16:03;15.10;;;8.95;;
30398;SDS011;17195;50.838;7.214;2023-03-01T00:18:29;13.93;;;8.75;;
30398;SDS011;17195;50.838;7.214;2023-03-01T00:20:55;14.73;;;9.55;;
30398;SDS011;17195;50.838;7.214;2023-03-01T00:23:21;15.85;;;9.63;;
30398;SDS011;17195;50.838;7.214;2023-03-01T00:25:47;15.93;;;9.80;;
30398;SDS011;17195;50.838;7.214;2023-03-01T00:28:13;15.50;;;9.38;;
30398;SDS011;17195;50.838;7.214;2023-03-01T00:30:38;18.23;;;9.65;;
30398;SDS011;17195;50.838;7.214;2023-03-01T00:33:04;17.90;;;9.82;;
30398;SDS011;17195;50.838;7.214;2023-03-01T00:35:31;17.13;;;9.82;;
30398;SDS011;17195;50.838;7.214;2023-03-01T00:37:57;17.70;;;9.68;;
30398;SDS011;17195;50.838;7.214;2023-03-01T00:40:23;15.38;;;8.85;;
30398;SDS011;17195;50.838;7.214;2023-03-01T00:42:49;17.02;;;10.00;;
30398;SDS011;17195;50.838;7.214;2023-03-01T00:45:15;15.05;;;8.60;;
30398;SDS011;17195;50.838;7.214;2023-03-01T00:47:41;17.85;;;9.30;;
30398;SDS011;17195;50.838;7.214;2023-03-01T00:50:07;17.20;;;9.80;;
30398;SDS011;17195;50.838;7.214;2023-03-01T00:52:33;17.05;;;9.68;;
30398;SDS011;17195;50.838;7.214;2023-03-01T00:54:58;16.95;;;10.05;;
30398;SDS011;17195;50.838;7.214;2023-03-01T00:57:24;15.90;;;9.23;;
30398;SDS011;17195;50.838;7.214;2023-03-01T00:59:49;15.82;;;8.77;;
30398;SDS011;17195;50.838;7.214;2023-03-01T01:02:17;13.95;;;9.05;;
30398;SDS011;17195;50.838;7.214;2023-03-01T01:04:43;15.48;;;8.88;;
30398;SDS011;17195;50.838;7.214;2023-03-01T01:07:09;16.20;;;9.25;;
30398;SDS011;17195;50.838;7.214;2023-03-01T01:09:34;17.58;;;10.07;;
30398;SDS011;17195;50.838;7.214;2023-03-01T01:12:00;18.17;;;9.75;;
30398;SDS011;17195;50.838;7.214;2023-03-01T01:14:26;13.88;;;9.05;;
30398;SDS011;17195;50.838;7.214;2023-03-01T01:16:51;16.38;;;9.60;;
30398;SDS011;17195;50.838;7.214;2023-03-01T01:19:17;17.35;;;10.23;;
30398;SDS011;17195;50.838;7.214;2023-03-01T01:21:43;16.98;;;9.45;;
30398;SDS011;17195;50.838;7.214;2023-03-01T01:24:08;19.25;;;9.40;;
30398;SDS011;17195;50.838;7.214;2023-03-01T01:26:34;15.48;;;9.27;;
30398;SDS011;17195;50.838;7.214;2023-03-01T01:29:01;17.00;;;9.45;;
30398;SDS011;17195;50.838;7.214;2023-03-01T01:31:28;17.13;;;9.00;;
30398;SDS011;17195;50.838;7.214;2023-03-01T01:33:54;15.10;;;9.20;;
30398;SDS011;17195;50.838;7.214;2023-03-01T01:36:20;14.63;;;8.52;;
30398;SDS011;17195;50.838;7.214;2023-03-01T01:38:46;14.15;;;9.20;;
30398;SDS011;17195;50.838;7.214;2023-03-01T01:41:12;18.48;;;8.85;;
30398;SDS011;17195;50.838;7.214;2023-03-01T01:48:49;14.68;;;8.43;;
30398;SDS011;17195;50.838;7.214;2023-03-01T01:51:21;13.93;;;9.10;;
30398;SDS011;17195;50.838;7.214;2023-03-01T01:53:55;16.67;;;9.68;;
30398;SDS011;17195;50.838;7.214;2023-03-01T01:56:24;14.77;;;8.50;;
30398;SDS011;17195;50.838;7.214;2023-03-01T01:58:53;14.30;;;8.77;;
30398;SDS011;17195;50.838;7.214;2023-03-01T02:01:20;16.85;;;9.27;;
30398;SDS011;17195;50.838;7.214;2023-03-01T02:03:45;15.07;;;8.77;;
30398;SDS011;17195;50.838;7.214;2023-03-01T02:06:15;15.57;;;8.85;;
30398;SDS011;17195;50.838;7.214;2023-03-01T02:08:53;15.85;;;9.10;;
30398;SDS011;17195;50.838;7.214;2023-03-01T02:11:22;15.38;;;8.98;;
30398;SDS011;17195;50.838;7.214;2023-03-01T02:13:48;14.85;;;8.55;;
30398;SDS011;17195;50.838;7.214;2023-03-01T02:16:15;15.32;;;9.27;;
30398;SDS011;17195;50.838;7.214;2023-03-01T02:18:41;16.05;;;9.27;;
30398;SDS011;17195;50.838;7.214;2023-03-01T02:21:27;13.23;;;7.88;;
30398;SDS011;17195;50.838;7.214;2023-03-01T02:24:17;14.85;;;8.23;;
30398;SDS011;17195;50.838;7.214;2023-03-01T02:26:58;14.93;;;8.63;;
30398;SDS011;17195;50.838;7.214;2023-03-01T02:29:25;14.32;;;8.70;;
30398;SDS011;17195;50.838;7.214;2023-03-01T02:31:53;13.55;;;8.57;;
30398;SDS011;17195;50.838;7.214;2023-03-01T02:34:23;15.73;;;8.50;;
30398;SDS011;17195;50.838;7.214;2023-03-01T02:36:56;13.77;;;8.50;;
30398;SDS011;17195;50.838;7.214;2023-03-01T02:39:26;17.83;;;9.23;;
30398;SDS011;17195;50.838;7.214;2023-03-01T02:41:56;16.35;;;8.30;;
30398;SDS011;17195;50.838;7.214;2023-03-01T02:44:24;16.23;;;8.90;;
30398;SDS011;17195;50.838;7.214;2023-03-01T02:46:53;14.85;;;8.98;;
30398;SDS011;17195;50.838;7.214;2023-03-01T02:57:33;14.27;;;9.00;;
30398;SDS011;17195;50.838;7.214;2023-03-01T03:00:03;13.02;;;8.38;;
30398;SDS011;17195;50.838;7.214;2023-03-01T03:02:44;16.75;;;9.10;;
30398;SDS011;17195;50.838;7.214;2023-03-01T03:07:44;15.13;;;8.73;;
30398;SDS011;17195;50.838;7.214;2023-03-01T03:10:14;15.07;;;9.05;;
30398;SDS011;17195;50.838;7.214;2023-03-01T03:12:44;15.10;;;8.38;;
30398;SDS011;17195;50.838;7.214;2023-03-01T03:15:13;14.25;;;9.20;;
30398;SDS011;17195;50.838;7.214;2023-03-01T03:17:40;14.90;;;8.63;;
30398;SDS011;17195;50.838;7.214;2023-03-01T03:20:07;13.48;;;8.52;;
30398;SDS011;17195;50.838;7.214;2023-03-01T03:22:38;16.73;;;9.15;;
30398;SDS011;17195;50.838;7.214;2023-03-01T03:25:04;16.90;;;9.45;;
30398;SDS011;17195;50.838;7.214;2023-03-01T03:27:35;16.40;;;8.98;;
30398;SDS011;17195;50.838;7.214;2023-03-01T03:30:05;14.88;;;9.35;;
30398;SDS011;17195;50.838;7.214;2023-03-01T03:32:36;16.42;;;8.73;;
30398;SDS011;17195;50.838;7.214;2023-03-01T03:35:03;14.75;;;9.05;;
30398;SDS011;17195;50.838;7.214;2023-03-01T03:37:35;14.23;;;8.93;;
30398;SDS011;17195;50.838;7.214;2023-03-01T03:40:20;15.23;;;8.70;;
30398;SDS011;17195;50.838;7.214;2023-03-01T03:42:46;15.20;;;9.02;;
30398;SDS011;17195;50.838;7.214;2023-03-01T03:45:11;13.07;;;8.95;;
30398;SDS011;17195;50.838;7.214;2023-03-01T03:47:37;13.43;;;8.52;;
30398;SDS011;17195;50.838;7.214;2023-03-01T03:50:02;14.27;;;9.15;;
30398;SDS011;17195;50.838;7.214;2023-03-01T03:52:28;17.95;;;9.02;;
30398;SDS011;17195;50.838;7.214;2023-03-01T03:54:53;17.85;;;9.20;;
30398;SDS011;17195;50.838;7.214;2023-03-01T03:57:19;15.38;;;9.10;;
30398;SDS011;17195;50.838;7.214;2023-03-01T03:59:46;15.75;;;9.13;;
30398;SDS011;17195;50.838;7.214;2023-03-01T04:02:11;16.48;;;9.38;;
30398;SDS011;17195;50.838;7.214;2023-03-01T04:04:37;15.88;;;8.82;;
30398;SDS011;17195;50.838;7.214;2023-03-01T04:07:02;15.23;;;8.63;;
30398;SDS011;17195;50.838;7.214;2023-03-01T04:09:28;16.90;;;10.13;;
30398;SDS011;17195;50.838;7.214;2023-03-01T04:11:55;17.58;;;9.90;;
30398;SDS011;17195;50.838;7.214;2023-03-01T04:14:20;14.57;;;8.98;;
30398;SDS011;17195;50.838;7.214;2023-03-01T04:16:46;16.88;;;9.30;;
30398;SDS011;17195;50.838;7.214;2023-03-01T04:19:12;17.33;;;9.88;;
30398;SDS011;17195;50.838;7.214;2023-03-01T04:21:37;17.55;;;9.40;;
30398;SDS011;17195;50.838;7.214;2023-03-01T04:24:03;13.55;;;8.77;;
30398;SDS011;17195;50.838;7.214;2023-03-01T04:26:29;16.17;;;9.55;;
30398;SDS011;17195;50.838;7.214;2023-03-01T04:28:54;18.25;;;9.80;;
30398;SDS011;17195;50.838;7.214;2023-03-01T04:31:20;16.52;;;9.57;;
30398;SDS011;17195;50.838;7.214;2023-03-01T04:36:19;19.05;;;9.93;;
30398;SDS011;17195;50.838;7.214;2023-03-01T04:38:49;17.15;;;10.02;;
30398;SDS011;17195;50.838;7.214;2023-03-01T04:41:16;16.38;;;10.40;;
30398;SDS011;17195;50.838;7.214;2023-03-01T04:43:43;16.50;;;9.48;;
30398;SDS011;17195;50.838;7.214;2023-03-01T04:46:11;15.95;;;9.45;;
30398;SDS011;17195;50.838;7.214;2023-03-01T04:48:39;20.20;;;10.65;;
30398;SDS011;17195;50.838;7.214;2023-03-01T04:51:07;20.33;;;10.90;;
30398;SDS011;17195;50.838;7.214;2023-03-01T04:53:34;19.17;;;10.52;;
30398;SDS011;17195;50.838;7.214;2023-03-01T04:56:01;20.52;;;11.07;;
30398;SDS011;17195;50.838;7.214;2023-03-01T04:58:27;18.52;;;10.32;;
30398;SDS011;17195;50.838;7.214;2023-03-01T05:00:53;18.70;;;10.27;;
30398;SDS011;17195;50.838;7.214;2023-03-01T05:03:20;17.48;;;10.05;;
30398;SDS011;17195;50.838;7.214;2023-03-01T05:05:47;16.55;;;9.60;;
30398;SDS011;17195;50.838;7.214;2023-03-01T05:08:14;17.85;;;10.25;;
30398;SDS011;17195;50.838;7.214;2023-03-01T05:10:44;16.27;;;9.57;;
30398;SDS011;17195;50.838;7.214;2023-03-01T05:13:13;17.35;;;9.93;;
30398;SDS011;17195;50.838;7.214;2023-03-01T05:15:45;18.95;;;10.30;;
30398;SDS011;17195;50.838;7.214;2023-03-01T05:18:19;18.02;;;10.13;;
30398;SDS011;17195;50.838;7.214;2023-03-01T05:20:44;16.83;;;9.70;;
30398;SDS011;17195;50.838;7.214;2023-03-01T05:23:10;18.45;;;9.10;;
30398;SDS011;17195;50.838;7.214;2023-03-01T05:25:35;18.33;;;10.55;;
30398;SDS011;17195;50.838;7.214;2023-03-01T05:28:05;19.48;;;9.60;;
30398;SDS011;17195;50.838;7.214;2023-03-01T05:30:35;18.40;;;10.38;;
30398;SDS011;17195;50.838;7.214;2023-03-01T05:33:01;24.05;;;13.10;;
30398;SDS011;17195;50.838;7.214;2023-03-01T05:35:27;19.85;;;11.63;;
30398;SDS011;17195;50.838;7.214;2023-03-01T05:37:54;23.45;;;11.95;;
30398;SDS011;17195;50.838;7.214;2023-03-01T05:40:20;17.67;;;10.50;;
30398;SDS011;17195;50.838;7.214;2023-03-01T05:42:49;23.00;;;13.40;;
30398;SDS011;17195;50.838;7.214;2023-03-01T05:45:18;22.17;;;13.32;;
30398;SDS011;17195;50.838;7.214;2023-03-01T05:47:44;23.05;;;13.10;;
30398;SDS011;17195;50.838;7.214;2023-03-01T05:50:13;20.75;;;12.57;;
30398;SDS011;17195;50.838;7.214;2023-03-01T05:52:44;18.85;;;11.00;;
30398;SDS011;17195;50.838;7.214;2023-03-01T05:55:11;16.88;;;10.73;;
30398;SDS011;17195;50.838;7.214;2023-03-01T05:57:36;16.95;;;10.35;;
30398;SDS011;17195;50.838;7.214;2023-03-01T06:00:02;19.45;;;10.65;;
30398;SDS011;17195;50.838;7.214;2023-03-01T06:02:28;24.00;;;12.05;;
30398;SDS011;17195;50.838;7.214;2023-03-01T06:04:54;21.55;;;13.15;;
30398;SDS011;17195;50.838;7.214;2023-03-01T06:07:20;20.42;;;12.68;;
30398;SDS011;17195;50.838;7.214;2023-03-01T06:09:46;24.33;;;13.20;;
30398;SDS011;17195;50.838;7.214;2023-03-01T06:12:11;22.65;;;12.25;;
30398;SDS011;17195;50.838;7.214;2023-03-01T06:14:37;21.40;;;12.15;;
30398;SDS011;17195;50.838;7.214;2023-03-01T06:17:02;22.88;;;12.90;;
30398;SDS011;17195;50.838;7.214;2023-03-01T06:19:28;21.17;;;12.10;;
30398;SDS011;17195;50.838;7.214;2023-03-01T06:21:53;22.80;;;12.13;;
30398;SDS011;17195;50.838;7.214;2023-03-01T06:24:19;22.40;;;11.57;;
30398;SDS011;17195;50.838;7.214;2023-03-01T06:26:44;20.17;;;11.40;;
30398;SDS011;17195;50.838;7.214;2023-03-01T06:29:10;24.08;;;12.73;;
30398;SDS011;17195;50.838;7.214;2023-03-01T06:31:36;22.80;;;14.23;;
30398;SDS011;17195;50.838;7.214;2023-03-01T06:34:01;25.00;;;12.98;;
30398;SDS011;17195;50.838;7.214;2023-03-01T06:36:27;18.38;;;11.05;;
30398;SDS011;17195;50.838;7.214;2023-03-01T06:38:53;21.85;;;11.95;;
30398;SDS011;17195;50.838;7.214;2023-03-01T06:41:18;24.30;;;11.60;;
30398;SDS011;17195;50.838;7.214;2023-03-01T06:43:44;22.30;;;11.93;;
30398;SDS011;17195;50.838;7.214;2023-03-01T06:46:09;24.13;;;12.20;;
30398;SDS011;17195;50.838;7.214;2023-03-01T06:48:35;23.67;;;12.57;;
30398;SDS011;17195;50.838;7.214;2023-03-01T06:51:00;25.45;;;12.43;;
30398;SDS011;17195;50.838;7.214;2023-03-01T06:53:27;21.67;;;12.13;;
30398;SDS011;17195;50.838;7.214;2023-03-01T06:55:56;25.73;;;12.18;;
30398;SDS011;17195;50.838;7.214;2023-03-01T06:58:22;25.17;;;13.50;;
30398;SDS011;17195;50.838;7.214;2023-03-01T07:00:48;26.77;;;14.40;;
30398;SDS011;17195;50.838;7.214;2023-03-01T07:03:13;31.00;;;15.32;;
30398;SDS011;17195;50.838;7.214;2023-03-01T07:05:39;26.65;;;14.68;;
30398;SDS011;17195;50.838;7.214;2023-03-01T07:08:05;31.55;;;16.52;;
30398;SDS011;17195;50.838;7.214;2023-03-01T07:10:30;30.70;;;15.80;;
30398;SDS011;17195;50.838;7.214;2023-03-01T07:12:56;29.58;;;15.75;;
30398;SDS011;17195;50.838;7.214;2023-03-01T07:15:23;25.17;;;13.88;;
30398;SDS011;17195;50.838;7.214;2023-03-01T07:17:50;26.40;;;13.93;;
30398;SDS011;17195;50.838;7.214;2023-03-01T07:20:16;23.83;;;13.23;;
30398;SDS011;17195;50.838;7.214;2023-03-01T07:22:43;24.55;;;14.27;;
30398;SDS011;17195;50.838;7.214;2023-03-01T07:25:09;21.98;;;13.02;;
30398;SDS011;17195;50.838;7.214;2023-03-01T07:27:35;19.60;;;12.65;;
30398;SDS011;17195;50.838;7.214;2023-03-01T07:30:01;21.10;;;11.73;;
30398;SDS011;17195;50.838;7.214;2023-03-01T07:32:26;23.55;;;13.43;;
30398;SDS011;17195;50.838;7.214;2023-03-01T07:34:52;22.55;;;12.95;;
30398;SDS011;17195;50.838;7.214;2023-03-01T07:37:17;19.00;;;12.60;;
30398;SDS011;17195;50.838;7.214;2023-03-01T07:39:43;20.70;;;12.95;;
30398;SDS011;17195;50.838;7.214;2023-03-01T07:42:08;28.73;;;13.43;;
30398;SDS011;17195;50.838;7.214;2023-03-01T07:44:34;25.17;;;13.95;;
30398;SDS011;17195;50.838;7.214;2023-03-01T07:47:00;27.08;;;16.05;;
30398;SDS011;17195;50.838;7.214;2023-03-01T07:49:25;23.95;;;13.75;;
30398;SDS011;17195;50.838;7.214;2023-03-01T07:51:52;22.85;;;13.75;;
30398;SDS011;17195;50.838;7.214;2023-03-01T07:54:17;24.38;;;14.45;;
30398;SDS011;17195;50.838;7.214;2023-03-01T07:56:43;28.38;;;14.48;;
30398;SDS011;17195;50.838;7.214;2023-03-01T07:59:09;23.95;;;14.40;;
30398;SDS011;17195;50.838;7.214;2023-03-01T08:01:34;22.42;;;13.57;;
30398;SDS011;17195;50.838;7.214;2023-03-01T08:04:00;24.42;;;14.18;;
30398;SDS011;17195;50.838;7.214;2023-03-01T08:06:26;29.15;;;15.00;;
30398;SDS011;17195;50.838;7.214;2023-03-01T08:08:52;21.58;;;13.52;;
30398;SDS011;17195;50.838;7.214;2023-03-01T08:11:20;26.35;;;14.50;;
30398;SDS011;17195;50.838;7.214;2023-03-01T08:13:47;27.40;;;15.18;;
30398;SDS011;17195;50.838;7.214;2023-03-01T08:16:13;24.95;;;14.27;;
30398;SDS011;17195;50.838;7.214;2023-03-01T08:18:39;26.60;;;14.93;;
30398;SDS011;17195;50.838;7.214;2023-03-01T08:21:06;24.40;;;14.25;;
30398;SDS011;17195;50.838;7.214;2023-03-01T08:23:34;23.50;;;14.25;;
30398;SDS011;17195;50.838;7.214;2023-03-01T08:26:09;26.25;;;14.88;;
30398;SDS011;17195;50.838;7.214;2023-03-01T08:28:37;21.27;;;14.07;;
30398;SDS011;17195;50.838;7.214;2023-03-01T08:31:12;23.27;;;14.00;;
30398;SDS011;17195;50.838;7.214;2023-03-01T08:33:41;25.10;;;13.73;;
30398;SDS011;17195;50.838;7.214;2023-03-01T08:36:07;22.52;;;14.00;;
30398;SDS011;17195;50.838;7.214;2023-03-01T08:38:33;23.65;;;13.77;;
30398;SDS011;17195;50.838;7.214;2023-03-01T08:41:00;24.20;;;14.43;;
30398;SDS011;17195;50.838;7.214;2023-03-01T08:43:27;21.63;;;13.32;;
30398;SDS011;17195;50.838;7.214;2023-03-01T08:45:52;21.70;;;12.75;;
30398;SDS011;17195;50.838;7.214;2023-03-01T08:48:18;22.23;;;13.63;;
30398;SDS011;17195;50.838;7.214;2023-03-01T08:50:44;21.27;;;12.32;;
30398;SDS011;17195;50.838;7.214;2023-03-01T08:53:09;21.75;;;13.80;;
30398;SDS011;17195;50.838;7.214;2023-03-01T08:55:35;21.20;;;13.23;;
30398;SDS011;17195;50.838;7.214;2023-03-01T08:58:00;22.17;;;13.05;;
30398;SDS011;17195;50.838;7.214;2023-03-01T09:00:26;21.50;;;13.05;;
30398;SDS011;17195;50.838;7.214;2023-03-01T09:02:51;20.42;;;13.27;;
30398;SDS011;17195;50.838;7.214;2023-03-01T09:05:17;24.38;;;12.82;;
30398;SDS011;17195;50.838;7.214;2023-03-01T09:07:42;19.50;;;12.20;;
30398;SDS011;17195;50.838;7.214;2023-03-01T09:10:08;22.98;;;13.15;;
30398;SDS011;17195;50.838;7.214;2023-03-01T09:12:34;20.08;;;13.38;;
30398;SDS011;17195;50.838;7.214;2023-03-01T09:15:00;20.48;;;12.40;;
30398;SDS011;17195;50.838;7.214;2023-03-01T09:17:25;19.48;;;12.32;;
30398;SDS011;17195;50.838;7.214;2023-03-01T09:19:51;19.25;;;12.35;;
30398;SDS011;17195;50.838;7.214;2023-03-01T09:22:16;21.30;;;11.98;;
30398;SDS011;17195;50.838;7.214;2023-03-01T09:24:42;20.05;;;12.85;;
30398;SDS011;17195;50.838;7.214;2023-03-01T09:27:07;21.80;;;12.95;;
30398;SDS011;17195;50.838;7.214;2023-03-01T09:29:34;18.88;;;11.93;;
30398;SDS011;17195;50.838;7.214;2023-03-01T09:32:03;18.17;;;11.60;;
30398;SDS011;17195;50.838;7.214;2023-03-01T09:34:29;20.65;;;12.52;;
30398;SDS011;17195;50.838;7.214;2023-03-01T09:36:54;19.27;;;12.00;;
30398;SDS011;17195;50.838;7.214;2023-03-01T09:39:22;21.30;;;12.60;;
30398;SDS011;17195;50.838;7.214;2023-03-01T09:50:09;18.40;;;11.30;;
30398;SDS011;17195;50.838;7.214;2023-03-01T09:55:39;19.65;;;11.68;;
30398;SDS011;17195;50.838;7.214;2023-03-01T10:01:27;17.63;;;10.77;;
30398;SDS011;17195;50.838;7.214;2023-03-01T10:04:37;18.20;;;11.02;;
30398;SDS011;17195;50.838;7.214;2023-03-01T10:06:36;19.00;;;10.95;;
30398;SDS011;17195;50.838;7.214;2023-03-01T10:09:10;19.02;;;10.23;;
30398;SDS011;17195;50.838;7.214;2023-03-01T10:11:42;16.17;;;10.35;;
30398;SDS011;17195;50.838;7.214;2023-03-01T10:14:26;18.73;;;10.43;;
30398;SDS011;17195;50.838;7.214;2023-03-01T10:19:36;16.80;;;10.15;;
30398;SDS011;17195;50.838;7.214;2023-03-01T10:22:14;16.58;;;10.88;;
30398;SDS011;17195;50.838;7.214;2023-03-01T10:24:42;18.05;;;10.10;;
30398;SDS011;17195;50.838;7.214;2023-03-01T10:27:58;16.77;;;10.10;;
30398;SDS011;17195;50.838;7.214;2023-03-01T10:30:12;15.02;;;10.07;;
30398;SDS011;17195;50.838;7.214;2023-03-01T10:32:57;14.10;;;8.98;;
30398;SDS011;17195;50.838;7.214;2023-03-01T10:35:25;13.45;;;8.70;;
30398;SDS011;17195;50.838;7.214;2023-03-01T10:38:02;15.32;;;9.35;;
30398;SDS011;17195;50.838;7.214;2023-03-01T10:40:32;12.82;;;8.50;;
30398;SDS011;17195;50.838;7.214;2023-03-01T10:42:59;14.77;;;8.80;;
30398;SDS011;17195;50.838;7.214;2023-03-01T10:51:14;16.40;;;10.00;;
30398;SDS011;17195;50.838;7.214;2023-03-01T10:53:41;16.48;;;10.48;;
30398;SDS011;17195;50.838;7.214;2023-03-01T10:56:09;15.45;;;10.45;;
30398;SDS011;17195;50.838;7.214;2023-03-01T10:58:39;15.82;;;10.25;;
30398;SDS011;17195;50.838;7.214;2023-03-01T11:03:41;19.48;;;10.32;;
30398;SDS011;17195;50.838;7.214;2023-03-01T11:11:06;16.30;;;10.25;;
30398;SDS011;17195;50.838;7.214;2023-03-01T11:16:22;17.40;;;9.80;;
30398;SDS011;17195;50.838;7.214;2023-03-01T11:18:58;15.38;;;10.07;;
30398;SDS011;17195;50.838;7.214;2023-03-01T11:24:09;13.40;;;9.18;;
30398;SDS011;17195;50.838;7.214;2023-03-01T11:26:42;18.80;;;9.57;;
30398;SDS011;17195;50.838;7.214;2023-03-01T11:29:25;14.73;;;8.50;;
30398;SDS011;17195;50.838;7.214;2023-03-01T11:31:52;16.13;;;9.80;;
30398;SDS011;17195;50.838;7.214;2023-03-01T11:34:24;12.70;;;8.40;;
30398;SDS011;17195;50.838;7.214;2023-03-01T11:37:02;16.92;;;9.68;;
30398;SDS011;17195;50.838;7.214;2023-03-01T11:39:39;12.73;;;7.88;;
30398;SDS011;17195;50.838;7.214;2023-03-01T11:42:21;12.43;;;7.70;;
30398;SDS011;17195;50.838;7.214;2023-03-01T11:45:06;12.75;;;7.68;;
30398;SDS011;17195;50.838;7.214;2023-03-01T11:47:51;12.45;;;7.00;;
30398;SDS011;17195;50.838;7.214;2023-03-01T11:50:44;11.70;;;7.18;;
30398;SDS011;17195;50.838;7.214;2023-03-01T11:59:08;12.13;;;7.03;;
30398;SDS011;17195;50.838;7.214;2023-03-01T12:01:48;10.45;;;7.22;;
30398;SDS011;17195;50.838;7.214;2023-03-01T12:07:21;10.02;;;6.78;;
30398;SDS011;17195;50.838;7.214;2023-03-01T12:25:06;10.85;;;6.53;;
30398;SDS011;17195;50.838;7.214;2023-03-01T12:30:57;11.05;;;6.72;;
30398;SDS011;17195;50.838;7.214;2023-03-01T12:33:51;10.85;;;6.13;;
30398;SDS011;17195;50.838;7.214;2023-03-01T12:36:31;8.05;;;5.75;;
30398;SDS011;17195;50.838;7.214;2023-03-01T12:50:11;10.93;;;7.35;;
30398;SDS011;17195;50.838;7.214;2023-03-01T12:55:31;10.75;;;7.03;;
30398;SDS011;17195;50.838;7.214;2023-03-01T12:58:15;8.18;;;6.30;;
30398;SDS011;17195;50.838;7.214;2023-03-01T13:01:15;12.15;;;7.13;;
30398;SDS011;17195;50.838;7.214;2023-03-01T13:04:17;12.48;;;7.10;;
30398;SDS011;17195;50.838;7.214;2023-03-01T13:18:04;12.88;;;7.68;;
30398;SDS011;17195;50.838;7.214;2023-03-01T13:20:50;13.77;;;6.78;;
30398;SDS011;17195;50.838;7.214;2023-03-01T13:33:46;10.20;;;6.32;;
30398;SDS011;17195;50.838;7.214;2023-03-01T13:36:46;16.48;;;7.07;;
30398;SDS011;17195;50.838;7.214;2023-03-01T13:46:56;10.13;;;6.50;;
30398;SDS011;17195;50.838;7.214;2023-03-01T13:49:33;10.75;;;7.22;;
30398;SDS011;17195;50.838;7.214;2023-03-01T13:52:13;10.63;;;6.78;;
30398;SDS011;17195;50.838;7.214;2023-03-01T13:54:51;8.57;;;6.20;;
30398;SDS011;17195;50.838;7.214;2023-03-01T13:57:20;9.13;;;6.22;;
30398;SDS011;17195;50.838;7.214;2023-03-01T13:59:50;7.90;;;5.95;;
30398;SDS011;17195;50.838;7.214;2023-03-01T14:02:16;8.43;;;5.38;;
30398;SDS011;17195;50.838;7.214;2023-03-01T14:04:42;8.07;;;5.78;;
30398;SDS011;17195;50.838;7.214;2023-03-01T14:07:12;11.57;;;5.80;;
30398;SDS011;17195;50.838;7.214;2023-03-01T14:09:47;9.52;;;5.90;;
30398;SDS011;17195;50.838;7.214;2023-03-01T14:15:22;10.60;;;5.85;;
30398;SDS011;17195;50.838;7.214;2023-03-01T14:20:39;10.27;;;4.63;;
30398;SDS011;17195;50.838;7.214;2023-03-01T14:23:11;9.07;;;5.40;;
30398;SDS011;17195;50.838;7.214;2023-03-01T14:25:38;6.22;;;4.55;;
30398;SDS011;17195;50.838;7.214;2023-03-01T14:28:31;5.45;;;4.32;;
30398;SDS011;17195;50.838;7.214;2023-03-01T14:31:02;7.35;;;4.35;;
30398;SDS011;17195;50.838;7.214;2023-03-01T14:33:54;6.75;;;4.13;;
30398;SDS011;17195;50.838;7.214;2023-03-01T14:36:25;7.18;;;4.10;;
30398;SDS011;17195;50.838;7.214;2023-03-01T14:38:53;7.97;;;4.43;;
30398;SDS011;17195;50.838;7.214;2023-03-01T14:41:20;6.75;;;4.38;;
30398;SDS011;17195;50.838;7.214;2023-03-01T14:43:58;5.25;;;4.20;;
30398;SDS011;17195;50.838;7.214;2023-03-01T14:46:39;6.85;;;4.68;;
30398;SDS011;17195;50.838;7.214;2023-03-01T14:49:28;10.73;;;5.80;;
30398;SDS011;17195;50.838;7.214;2023-03-01T14:51:58;9.02;;;6.90;;
30398;SDS011;17195;50.838;7.214;2023-03-01T14:54:28;9.45;;;6.00;;
30398;SDS011;17195;50.838;7.214;2023-03-01T14:57:01;8.32;;;5.38;;
30398;SDS011;17195;50.838;7.214;2023-03-01T14:59:27;9.23;;;6.45;;
30398;SDS011;17195;50.838;7.214;2023-03-01T15:01:54;9.73;;;6.03;;
30398;SDS011;17195;50.838;7.214;2023-03-01T15:04:22;7.18;;;5.93;;
30398;SDS011;17195;50.838;7.214;2023-03-01T15:06:54;8.65;;;5.75;;
30398;SDS011;17195;50.838;7.214;2023-03-01T15:09:29;8.68;;;5.65;;
30398;SDS011;17195;50.838;7.214;2023-03-01T15:11:59;7.32;;;4.38;;
30398;SDS011;17195;50.838;7.214;2023-03-01T15:14:25;10.77;;;4.45;;
30398;SDS011;17195;50.838;7.214;2023-03-01T15:17:05;9.57;;;6.40;;
30398;SDS011;17195;50.838;7.214;2023-03-01T15:19:55;9.80;;;6.38;;
30398;SDS011;17195;50.838;7.214;2023-03-01T15:22:21;8.60;;;5.95;;
30398;SDS011;17195;50.838;7.214;2023-03-01T15:24:49;6.90;;;5.22;;
30398;SDS011;17195;50.838;7.214;2023-03-01T15:27:19;8.55;;;5.57;;
30398;SDS011;17195;50.838;7.214;2023-03-01T15:29:53;12.10;;;5.82;;
30398;SDS011;17195;50.838;7.214;2023-03-01T15:32:33;8.75;;;5.50;;
30398;SDS011;17195;50.838;7.214;2023-03-01T15:35:49;9.73;;;6.35;;
30398;SDS011;17195;50.838;7.214;2023-03-01T15:40:54;10.52;;;5.70;;
30398;SDS011;17195;50.838;7.214;2023-03-01T15:43:36;9.30;;;5.28;;
30398;SDS011;17195;50.838;7.214;2023-03-01T15:46:15;8.43;;;4.95;;
30398;SDS011;17195;50.838;7.214;2023-03-01T15:48:46;7.63;;;5.68;;
30398;SDS011;17195;50.838;7.214;2023-03-01T15:51:14;9.60;;;5.47;;
30398;SDS011;17195;50.838;7.214;2023-03-01T15:53:41;8.63;;;4.90;;
30398;SDS011;17195;50.838;7.214;2023-03-01T15:56:08;7.72;;;5.40;;
30398;SDS011;17195;50.838;7.214;2023-03-01T15:58:34;9.32;;;5.65;;
30398;SDS011;17195;50.838;7.214;2023-03-01T16:00:59;8.15;;;5.68;;
30398;SDS011;17195;50.838;7.214;2023-03-01T16:03:25;8.07;;;5.90;;
30398;SDS011;17195;50.838;7.214;2023-03-01T16:05:51;10.00;;;5.85;;
30398;SDS011;17195;50.838;7.214;2023-03-01T16:08:17;10.60;;;6.18;;
30398;SDS011;17195;50.838;7.214;2023-03-01T16:10:43;10.00;;;6.00;;
30398;SDS011;17195;50.838;7.214;2023-03-01T16:13:13;12.77;;;5.85;;
30398;SDS011;17195;50.838;7.214;2023-03-01T16:15:38;7.97;;;6.00;;
30398;SDS011;17195;50.838;7.214;2023-03-01T16:18:05;7.68;;;5.45;;
30398;SDS011;17195;50.838;7.214;2023-03-01T16:20:32;6.43;;;5.45;;
30398;SDS011;17195;50.838;7.214;2023-03-01T16:22:59;12.15;;;6.22;;
30398;SDS011;17195;50.838;7.214;2023-03-01T16:25:26;9.18;;;5.75;;
30398;SDS011;17195;50.838;7.214;2023-03-01T16:27:52;9.25;;;5.78;;
30398;SDS011;17195;50.838;7.214;2023-03-01T16:30:19;13.52;;;6.38;;
30398;SDS011;17195;50.838;7.214;2023-03-01T16:32:46;8.82;;;6.53;;
30398;SDS011;17195;50.838;7.214;2023-03-01T16:35:14;9.88;;;6.28;;
30398;SDS011;17195;50.838;7.214;2023-03-01T16:37:42;10.50;;;6.70;;
30398;SDS011;17195;50.838;7.214;2023-03-01T16:40:18;10.15;;;6.07;;
30398;SDS011;17195;50.838;7.214;2023-03-01T16:42:46;9.32;;;5.55;;
30398;SDS011;17195;50.838;7.214;2023-03-01T16:45:12;8.23;;;5.70;;
30398;SDS011;17195;50.838;7.214;2023-03-01T16:47:38;11.05;;;6.03;;
30398;SDS011;17195;50.838;7.214;2023-03-01T16:50:03;11.45;;;6.57;;
30398;SDS011;17195;50.838;7.214;2023-03-01T16:52:29;10.68;;;6.53;;
30398;SDS011;17195;50.838;7.214;2023-03-01T16:54:55;10.23;;;6.90;;
30398;SDS011;17195;50.838;7.214;2023-03-01T16:57:20;11.63;;;6.57;;